sensor_id;sensor_type;location;lat;lon;timestamp;pressure;altitude;pressure_sealevel;temperature;humidity
64211;BME280;50528;48.514;14.394;2022-12-05T00:00:16;93503.09;;;2.71;85.41
64211;BME280;50528;48.514;14.394;2022-12-05T00:02:00;93510.10;;;2.68;85.65
64211;BME280;50528;48.514;14.394;2022-12-05T00:02:34;93511.58;;;2.66;85.73
64211;BME280;50528;48.514;14.394;2022-12-05T00:03:07;93515.45;;;2.68;85.49
64211;BME280;50528;48.514;14.394;2022-12-05T00:03:41;93513.38;;;2.70;85.45
64211;BME280;50528;48.514;14.394;2022-12-05T00:04:14;93510.88;;;2.71;85.58
64211;BME280;50528;48.514;14.394;2022-12-05T00:04:48;93515.21;;;2.72;85.54
64211;BME280;50528;48.514;14.394;2022-12-05T00:05:21;93513.91;;;2.72;85.66
64211;BME280;50528;48.514;14.394;2022-12-05T00:05:57;93513.90;;;2.73;85.55
64211;BME280;50528;48.514;14.394;2022-12-05T00:06:32;93500.02;;;2.66;85.50
64211;BME280;50528;48.514;14.394;2022-12-05T00:07:05;93515.55;;;2.74;85.57
64211;BME280;50528;48.514;14.394;2022-12-05T00:07:39;93513.83;;;2.74;85.54
64211;BME280;50528;48.514;14.394;2022-12-05T00:08:12;93516.73;;;2.75;85.72
64211;BME280;50528;48.514;14.394;2022-12-05T00:08:47;93512.94;;;2.77;85.57
64211;BME280;50528;48.514;14.394;2022-12-05T00:09:20;93515.52;;;2.76;85.65
64211;BME280;50528;48.514;14.394;2022-12-05T00:09:54;93515.66;;;2.76;85.34
64211;BME280;50528;48.514;14.394;2022-12-05T00:10:28;93520.40;;;2.76;85.68
64211;BME280;50528;48.514;14.394;2022-12-05T00:11:02;93516.81;;;2.75;85.49
64211;BME280;50528;48.514;14.394;2022-12-05T00:11:38;93516.09;;;2.76;85.55
64211;BME280;50528;48.514;14.394;2022-12-05T00:12:12;93521.45;;;2.77;85.47
64211;BME280;50528;48.514;14.394;2022-12-05T00:12:48;93518.91;;;2.78;85.45
64211;BME280;50528;48.514;14.394;2022-12-05T00:13:21;93524.14;;;2.78;85.60
64211;BME280;50528;48.514;14.394;2022-12-05T00:13:55;93523.05;;;2.80;85.60
64211;BME280;50528;48.514;14.394;2022-12-05T00:14:29;93525.45;;;2.80;85.58
64211;BME280;50528;48.514;14.394;2022-12-05T00:15:03;93524.02;;;2.78;85.35
64211;BME280;50528;48.514;14.394;2022-12-05T00:15:39;93525.31;;;2.76;85.67
64211;BME280;50528;48.514;14.394;2022-12-05T00:16:15;93524.16;;;2.76;85.52
64211;BME280;50528;48.514;14.394;2022-12-05T00:16:49;93527.48;;;2.75;85.57
64211;BME280;50528;48.514;14.394;2022-12-05T00:17:23;93525.88;;;2.75;85.44
64211;BME280;50528;48.514;14.394;2022-12-05T00:17:56;93526.76;;;2.75;85.72
64211;BME280;50528;48.514;14.394;2022-12-05T00:18:29;93526.60;;;2.75;85.52
64211;BME280;50528;48.514;14.394;2022-12-05T00:19:04;93523.05;;;2.76;85.96
64211;BME280;50528;48.514;14.394;2022-12-05T00:19:38;93524.98;;;2.77;85.65
64211;BME280;50528;48.514;14.394;2022-12-05T00:20:11;93524.82;;;2.77;85.65
64211;BME280;50528;48.514;14.394;2022-12-05T00:20:46;93529.61;;;2.77;85.71
64211;BME280;50528;48.514;14.394;2022-12-05T00:21:23;93529.16;;;2.78;85.78
64211;BME280;50528;48.514;14.394;2022-12-05T00:21:56;93529.72;;;2.78;85.65
64211;BME280;50528;48.514;14.394;2022-12-05T00:22:30;93531.73;;;2.78;85.77
64211;BME280;50528;48.514;14.394;2022-12-05T00:23:03;93527.66;;;2.75;85.53
64211;BME280;50528;48.514;14.394;2022-12-05T00:23:36;93533.84;;;2.77;85.76
64211;BME280;50528;48.514;14.394;2022-12-05T00:24:12;93531.89;;;2.77;85.82
64211;BME280;50528;48.514;14.394;2022-12-05T00:24:46;93534.08;;;2.79;85.72
64211;BME280;50528;48.514;14.394;2022-12-05T00:25:19;93533.67;;;2.79;85.77
64211;BME280;50528;48.514;14.394;2022-12-05T00:25:52;93530.52;;;2.79;85.94
64211;BME280;50528;48.514;14.394;2022-12-05T00:26:27;93528.56;;;2.78;85.61
64211;BME280;50528;48.514;14.394;2022-12-05T00:27:02;93531.16;;;2.82;85.69
64211;BME280;50528;48.514;14.394;2022-12-05T00:27:36;93533.00;;;2.79;86.11
64211;BME280;50528;48.514;14.394;2022-12-05T00:28:09;93532.16;;;2.78;85.71
64211;BME280;50528;48.514;14.394;2022-12-05T00:28:43;93532.16;;;2.77;85.88
64211;BME280;50528;48.514;14.394;2022-12-05T00:29:17;93530.77;;;2.76;85.82
64211;BME280;50528;48.514;14.394;2022-12-05T00:29:50;93536.76;;;2.77;85.83
64211;BME280;50528;48.514;14.394;2022-12-05T00:30:24;93536.20;;;2.77;85.70
64211;BME280;50528;48.514;14.394;2022-12-05T00:31:23;93534.48;;;2.77;85.88
64211;BME280;50528;48.514;14.394;2022-12-05T00:31:54;93531.98;;;2.74;85.98
64211;BME280;50528;48.514;14.394;2022-12-05T00:32:28;93532.55;;;2.74;85.99
64211;BME280;50528;48.514;14.394;2022-12-05T00:33:01;93530.95;;;2.75;85.96
64211;BME280;50528;48.514;14.394;2022-12-05T00:33:35;93535.10;;;2.75;85.81
64211;BME280;50528;48.514;14.394;2022-12-05T00:34:09;93535.34;;;2.75;85.79
64211;BME280;50528;48.514;14.394;2022-12-05T00:34:42;93540.55;;;2.77;85.85
64211;BME280;50528;48.514;14.394;2022-12-05T00:35:19;93538.01;;;2.75;85.98
64211;BME280;50528;48.514;14.394;2022-12-05T00:35:52;93536.80;;;2.76;85.89
64211;BME280;50528;48.514;14.394;2022-12-05T00:36:28;93542.40;;;2.76;85.87
64211;BME280;50528;48.514;14.394;2022-12-05T00:37:02;93542.11;;;2.77;85.96
64211;BME280;50528;48.514;14.394;2022-12-05T00:37:35;93541.86;;;2.77;85.92
64211;BME280;50528;48.514;14.394;2022-12-05T00:38:09;93534.98;;;2.73;85.92
64211;BME280;50528;48.514;14.394;2022-12-05T00:38:43;93540.74;;;2.79;85.92
64211;BME280;50528;48.514;14.394;2022-12-05T00:39:16;93539.39;;;2.78;85.91
64211;BME280;50528;48.514;14.394;2022-12-05T00:39:49;93540.15;;;2.77;86.04
64211;BME280;50528;48.514;14.394;2022-12-05T00:40:23;93542.54;;;2.79;86.24
64211;BME280;50528;48.514;14.394;2022-12-05T00:41:08;93543.45;;;2.78;85.94
64211;BME280;50528;48.514;14.394;2022-12-05T00:41:42;93546.33;;;2.78;85.72
64211;BME280;50528;48.514;14.394;2022-12-05T00:42:15;93545.54;;;2.77;86.16
64211;BME280;50528;48.514;14.394;2022-12-05T00:42:48;93548.41;;;2.79;85.89
64211;BME280;50528;48.514;14.394;2022-12-05T00:43:24;93545.41;;;2.81;85.87
64211;BME280;50528;48.514;14.394;2022-12-05T00:43:59;93541.87;;;2.78;85.86
64211;BME280;50528;48.514;14.394;2022-12-05T00:44:33;93542.77;;;2.78;85.89
64211;BME280;50528;48.514;14.394;2022-12-05T00:45:07;93540.61;;;2.75;85.85
64211;BME280;50528;48.514;14.394;2022-12-05T00:45:41;93541.48;;;2.75;85.79
64211;BME280;50528;48.514;14.394;2022-12-05T00:46:18;93540.01;;;2.73;85.77
64211;BME280;50528;48.514;14.394;2022-12-05T00:46:52;93538.54;;;2.73;86.01
64211;BME280;50528;48.514;14.394;2022-12-05T00:47:25;93541.17;;;2.72;85.97
64211;BME280;50528;48.514;14.394;2022-12-05T00:47:59;93546.88;;;2.72;85.93
64211;BME280;50528;48.514;14.394;2022-12-05T00:48:32;93544.23;;;2.73;86.08
64211;BME280;50528;48.514;14.394;2022-12-05T00:49:06;93544.16;;;2.73;86.22
64211;BME280;50528;48.514;14.394;2022-12-05T00:49:40;93544.16;;;2.74;86.11
64211;BME280;50528;48.514;14.394;2022-12-05T00:50:13;93546.91;;;2.75;85.98
64211;BME280;50528;48.514;14.394;2022-12-05T00:50:46;93546.09;;;2.76;86.13
64211;BME280;50528;48.514;14.394;2022-12-05T00:51:23;93549.67;;;2.76;86.16
64211;BME280;50528;48.514;14.394;2022-12-05T00:51:59;93549.69;;;2.77;86.19
64211;BME280;50528;48.514;14.394;2022-12-05T00:52:32;93550.89;;;2.78;86.12
64211;BME280;50528;48.514;14.394;2022-12-05T00:53:05;93549.09;;;2.80;86.07
64211;BME280;50528;48.514;14.394;2022-12-05T00:53:39;93550.09;;;2.81;86.14
64211;BME280;50528;48.514;14.394;2022-12-05T00:54:15;93548.73;;;2.79;86.04
64211;BME280;50528;48.514;14.394;2022-12-05T00:54:48;93549.84;;;2.80;86.13
64211;BME280;50528;48.514;14.394;2022-12-05T00:55:22;93558.69;;;2.83;85.89
64211;BME280;50528;48.514;14.394;2022-12-05T00:55:55;93559.20;;;2.83;86.05
64211;BME280;50528;48.514;14.394;2022-12-05T00:56:30;93563.23;;;2.84;86.04
64211;BME280;50528;48.514;14.394;2022-12-05T00:57:03;93561.61;;;2.86;86.23
64211;BME280;50528;48.514;14.394;2022-12-05T00:57:37;93560.97;;;2.86;85.79
64211;BME280;50528;48.514;14.394;2022-12-05T00:58:10;93562.61;;;2.86;86.13
64211;BME280;50528;48.514;14.394;2022-12-05T00:58:44;93565.33;;;2.91;85.90
64211;BME280;50528;48.514;14.394;2022-12-05T00:59:18;93564.67;;;2.87;85.75
64211;BME280;50528;48.514;14.394;2022-12-05T00:59:54;93564.55;;;2.85;85.65
64211;BME280;50528;48.514;14.394;2022-12-05T01:00:28;93563.27;;;2.84;86.08
64211;BME280;50528;48.514;14.394;2022-12-05T01:01:47;93567.77;;;2.78;86.20
64211;BME280;50528;48.514;14.394;2022-12-05T01:02:23;93567.74;;;2.77;85.92
64211;BME280;50528;48.514;14.394;2022-12-05T01:02:56;93566.53;;;2.79;86.07
64211;BME280;50528;48.514;14.394;2022-12-05T01:03:33;93567.25;;;2.78;85.93
64211;BME280;50528;48.514;14.394;2022-12-05T01:04:10;93570.11;;;2.74;86.09
64211;BME280;50528;48.514;14.394;2022-12-05T01:04:43;93564.48;;;2.73;86.27
64211;BME280;50528;48.514;14.394;2022-12-05T01:05:17;93563.45;;;2.71;86.09
64211;BME280;50528;48.514;14.394;2022-12-05T01:05:50;93562.00;;;2.72;86.07
64211;BME280;50528;48.514;14.394;2022-12-05T01:06:25;93561.80;;;2.72;86.12
64211;BME280;50528;48.514;14.394;2022-12-05T01:06:58;93562.61;;;2.75;86.31
64211;BME280;50528;48.514;14.394;2022-12-05T01:07:33;93562.58;;;2.71;86.06
64211;BME280;50528;48.514;14.394;2022-12-05T01:08:06;93563.80;;;2.71;86.13
64211;BME280;50528;48.514;14.394;2022-12-05T01:08:40;93565.98;;;2.71;85.93
64211;BME280;50528;48.514;14.394;2022-12-05T01:09:15;93563.95;;;2.69;86.02
64211;BME280;50528;48.514;14.394;2022-12-05T01:09:49;93564.58;;;2.68;86.16
64211;BME280;50528;48.514;14.394;2022-12-05T01:10:22;93561.55;;;2.69;86.22
64211;BME280;50528;48.514;14.394;2022-12-05T01:10:57;93559.36;;;2.70;86.32
64211;BME280;50528;48.514;14.394;2022-12-05T01:11:33;93560.72;;;2.70;86.27
64211;BME280;50528;48.514;14.394;2022-12-05T01:12:13;93559.52;;;2.70;86.26
64211;BME280;50528;48.514;14.394;2022-12-05T01:12:46;93560.33;;;2.71;86.06
64211;BME280;50528;48.514;14.394;2022-12-05T01:13:20;93562.13;;;2.71;85.99
64211;BME280;50528;48.514;14.394;2022-12-05T01:13:54;93564.24;;;2.73;85.99
64211;BME280;50528;48.514;14.394;2022-12-05T01:14:28;93562.77;;;2.71;86.16
64211;BME280;50528;48.514;14.394;2022-12-05T01:15:01;93561.39;;;2.67;85.99
64211;BME280;50528;48.514;14.394;2022-12-05T01:15:36;93563.83;;;2.70;86.27
64211;BME280;50528;48.514;14.394;2022-12-05T01:16:18;93569.06;;;2.70;86.36
64211;BME280;50528;48.514;14.394;2022-12-05T01:16:54;93568.73;;;2.71;86.13
64211;BME280;50528;48.514;14.394;2022-12-05T01:17:28;93566.90;;;2.69;86.11
64211;BME280;50528;48.514;14.394;2022-12-05T01:18:04;93570.49;;;2.69;86.24
64211;BME280;50528;48.514;14.394;2022-12-05T01:18:39;93569.81;;;2.69;86.31
64211;BME280;50528;48.514;14.394;2022-12-05T01:19:18;93572.72;;;2.71;86.20
64211;BME280;50528;48.514;14.394;2022-12-05T01:19:51;93571.91;;;2.72;86.25
64211;BME280;50528;48.514;14.394;2022-12-05T01:20:25;93576.17;;;2.73;86.26
64211;BME280;50528;48.514;14.394;2022-12-05T01:20:58;93577.30;;;2.74;86.24
64211;BME280;50528;48.514;14.394;2022-12-05T01:21:35;93579.67;;;2.77;86.24
64211;BME280;50528;48.514;14.394;2022-12-05T01:22:09;93582.38;;;2.76;86.17
64211;BME280;50528;48.514;14.394;2022-12-05T01:22:42;93583.64;;;2.76;85.97
64211;BME280;50528;48.514;14.394;2022-12-05T01:23:16;93587.15;;;2.76;86.05
64211;BME280;50528;48.514;14.394;2022-12-05T01:23:50;93589.13;;;2.77;86.20
64211;BME280;50528;48.514;14.394;2022-12-05T01:24:24;93587.48;;;2.78;86.06
64211;BME280;50528;48.514;14.394;2022-12-05T01:24:58;93590.77;;;2.79;86.08
64211;BME280;50528;48.514;14.394;2022-12-05T01:25:32;93587.73;;;2.80;86.13
64211;BME280;50528;48.514;14.394;2022-12-05T01:26:07;93582.67;;;2.80;86.11
64211;BME280;50528;48.514;14.394;2022-12-05T01:26:45;93588.77;;;2.82;86.15
64211;BME280;50528;48.514;14.394;2022-12-05T01:27:18;93584.36;;;2.83;86.15
64211;BME280;50528;48.514;14.394;2022-12-05T01:27:52;93586.31;;;2.84;86.11
64211;BME280;50528;48.514;14.394;2022-12-05T01:28:25;93585.31;;;2.85;86.13
64211;BME280;50528;48.514;14.394;2022-12-05T01:28:58;93582.73;;;2.86;86.07
64211;BME280;50528;48.514;14.394;2022-12-05T01:29:32;93585.92;;;2.87;86.01
64211;BME280;50528;48.514;14.394;2022-12-05T01:30:05;93580.79;;;2.83;85.96
64211;BME280;50528;48.514;14.394;2022-12-05T01:30:40;93587.27;;;2.88;86.12
64211;BME280;50528;48.514;14.394;2022-12-05T01:31:53;93588.48;;;2.91;86.10
64211;BME280;50528;48.514;14.394;2022-12-05T01:32:27;93588.64;;;2.93;85.96
64211;BME280;50528;48.514;14.394;2022-12-05T01:33:00;93587.65;;;2.94;86.05
64211;BME280;50528;48.514;14.394;2022-12-05T01:33:34;93587.77;;;2.94;86.00
64211;BME280;50528;48.514;14.394;2022-12-05T01:34:10;93586.06;;;2.95;86.18
64211;BME280;50528;48.514;14.394;2022-12-05T01:34:44;93585.79;;;2.96;85.84
64211;BME280;50528;48.514;14.394;2022-12-05T01:35:18;93582.70;;;2.97;86.01
64211;BME280;50528;48.514;14.394;2022-12-05T01:35:51;93585.07;;;2.97;85.85
64211;BME280;50528;48.514;14.394;2022-12-05T01:36:25;93584.03;;;2.98;85.92
64211;BME280;50528;48.514;14.394;2022-12-05T01:36:58;93583.51;;;2.99;85.93
64211;BME280;50528;48.514;14.394;2022-12-05T01:37:32;93587.42;;;2.97;85.74
64211;BME280;50528;48.514;14.394;2022-12-05T01:38:06;93588.98;;;2.95;85.84
64211;BME280;50528;48.514;14.394;2022-12-05T01:38:41;93586.73;;;2.93;85.88
64211;BME280;50528;48.514;14.394;2022-12-05T01:39:17;93590.33;;;2.92;85.96
64211;BME280;50528;48.514;14.394;2022-12-05T01:39:50;93586.77;;;2.92;85.96
64211;BME280;50528;48.514;14.394;2022-12-05T01:40:23;93591.12;;;2.94;85.99
64211;BME280;50528;48.514;14.394;2022-12-05T01:41:01;93589.54;;;2.92;85.89
64211;BME280;50528;48.514;14.394;2022-12-05T01:41:42;93588.48;;;2.94;85.90
64211;BME280;50528;48.514;14.394;2022-12-05T01:42:16;93590.69;;;2.91;85.92
64211;BME280;50528;48.514;14.394;2022-12-05T01:42:57;93590.59;;;2.87;85.82
64211;BME280;50528;48.514;14.394;2022-12-05T01:43:32;93590.95;;;2.85;85.66
64211;BME280;50528;48.514;14.394;2022-12-05T01:45:35;93588.62;;;2.77;85.60
64211;BME280;50528;48.514;14.394;2022-12-05T01:46:09;93592.80;;;2.72;85.64
64211;BME280;50528;48.514;14.394;2022-12-05T01:46:46;93592.61;;;2.69;85.71
64211;BME280;50528;48.514;14.394;2022-12-05T01:47:22;93593.48;;;2.68;85.72
64211;BME280;50528;48.514;14.394;2022-12-05T01:47:56;93588.67;;;2.64;85.98
64211;BME280;50528;48.514;14.394;2022-12-05T01:48:32;93590.29;;;2.66;86.15
64211;BME280;50528;48.514;14.394;2022-12-05T01:49:16;93590.31;;;2.65;85.83
64211;BME280;50528;48.514;14.394;2022-12-05T01:49:50;93593.69;;;2.54;85.94
64211;BME280;50528;48.514;14.394;2022-12-05T01:50:23;93595.88;;;2.51;86.20
64211;BME280;50528;48.514;14.394;2022-12-05T01:50:58;93595.45;;;2.50;86.39
64211;BME280;50528;48.514;14.394;2022-12-05T01:51:32;93597.92;;;2.49;86.47
64211;BME280;50528;48.514;14.394;2022-12-05T01:52:10;93599.51;;;2.50;86.75
64211;BME280;50528;48.514;14.394;2022-12-05T01:52:46;93601.88;;;2.51;86.35
64211;BME280;50528;48.514;14.394;2022-12-05T01:53:20;93600.52;;;2.52;86.26
64211;BME280;50528;48.514;14.394;2022-12-05T01:53:54;93601.04;;;2.53;86.52
64211;BME280;50528;48.514;14.394;2022-12-05T01:54:28;93600.10;;;2.55;86.49
64211;BME280;50528;48.514;14.394;2022-12-05T01:55:07;93599.83;;;2.55;86.56
64211;BME280;50528;48.514;14.394;2022-12-05T01:55:41;93601.50;;;2.58;86.48
64211;BME280;50528;48.514;14.394;2022-12-05T01:56:15;93601.73;;;2.58;86.58
64211;BME280;50528;48.514;14.394;2022-12-05T01:56:58;93600.02;;;2.59;86.63
64211;BME280;50528;48.514;14.394;2022-12-05T01:57:35;93600.92;;;2.61;86.22
64211;BME280;50528;48.514;14.394;2022-12-05T01:58:09;93600.40;;;2.62;86.69
64211;BME280;50528;48.514;14.394;2022-12-05T01:58:46;93601.61;;;2.63;86.35
64211;BME280;50528;48.514;14.394;2022-12-05T01:59:21;93599.52;;;2.64;86.30
64211;BME280;50528;48.514;14.394;2022-12-05T02:00:00;93597.95;;;2.66;86.38
64211;BME280;50528;48.514;14.394;2022-12-05T02:00:43;93600.51;;;2.67;86.41
64211;BME280;50528;48.514;14.394;2022-12-05T02:01:17;93593.65;;;2.67;86.32
64211;BME280;50528;48.514;14.394;2022-12-05T02:01:51;93593.97;;;2.68;86.03
64211;BME280;50528;48.514;14.394;2022-12-05T02:02:26;93599.35;;;2.70;86.34
64211;BME280;50528;48.514;14.394;2022-12-05T02:03:04;93601.75;;;2.67;86.15
64211;BME280;50528;48.514;14.394;2022-12-05T02:03:39;93603.70;;;2.67;86.20
64211;BME280;50528;48.514;14.394;2022-12-05T02:04:13;93604.45;;;2.66;86.19
64211;BME280;50528;48.514;14.394;2022-12-05T02:04:55;93610.17;;;2.66;86.23
64211;BME280;50528;48.514;14.394;2022-12-05T02:05:33;93609.73;;;2.66;86.00
64211;BME280;50528;48.514;14.394;2022-12-05T02:06:08;93608.39;;;2.64;86.21
64211;BME280;50528;48.514;14.394;2022-12-05T02:06:41;93610.62;;;2.63;86.19
64211;BME280;50528;48.514;14.394;2022-12-05T02:07:15;93610.98;;;2.63;86.27
64211;BME280;50528;48.514;14.394;2022-12-05T02:07:49;93610.63;;;2.63;86.06
64211;BME280;50528;48.514;14.394;2022-12-05T02:08:27;93607.84;;;2.63;86.38
64211;BME280;50528;48.514;14.394;2022-12-05T02:09:00;93607.13;;;2.63;86.25
64211;BME280;50528;48.514;14.394;2022-12-05T02:09:34;93605.34;;;2.65;86.31
64211;BME280;50528;48.514;14.394;2022-12-05T02:10:09;93599.83;;;2.66;86.30
64211;BME280;50528;48.514;14.394;2022-12-05T02:10:45;93600.67;;;2.67;86.36
64211;BME280;50528;48.514;14.394;2022-12-05T02:11:21;93597.11;;;2.68;86.21
64211;BME280;50528;48.514;14.394;2022-12-05T02:11:59;93602.51;;;2.69;86.28
64211;BME280;50528;48.514;14.394;2022-12-05T02:12:34;93597.08;;;2.70;86.07
64211;BME280;50528;48.514;14.394;2022-12-05T02:15:55;93599.88;;;2.70;86.04
64211;BME280;50528;48.514;14.394;2022-12-05T02:17:01;93603.58;;;2.65;85.83
64211;BME280;50528;48.514;14.394;2022-12-05T02:24:20;93609.78;;;2.51;86.09
64211;BME280;50528;48.514;14.394;2022-12-05T02:25:17;93613.96;;;2.52;86.18
64211;BME280;50528;48.514;14.394;2022-12-05T02:28:59;93618.98;;;2.52;86.12
64211;BME280;50528;48.514;14.394;2022-12-05T02:30:37;93610.21;;;2.50;86.04
64211;BME280;50528;48.514;14.394;2022-12-05T02:31:43;93612.56;;;2.52;85.89
64211;BME280;50528;48.514;14.394;2022-12-05T02:33:22;93606.95;;;2.49;86.16
64211;BME280;50528;48.514;14.394;2022-12-05T02:36:37;93605.81;;;2.40;85.84
64211;BME280;50528;48.514;14.394;2022-12-05T02:37:16;93602.94;;;2.37;85.68
64211;BME280;50528;48.514;14.394;2022-12-05T02:39:30;93599.83;;;2.31;85.54
64211;BME280;50528;48.514;14.394;2022-12-05T02:40:26;93598.00;;;2.27;85.59
64211;BME280;50528;48.514;14.394;2022-12-05T02:41:18;93599.86;;;2.23;85.72
64211;BME280;50528;48.514;14.394;2022-12-05T02:42:23;93599.80;;;2.21;85.72
64211;BME280;50528;48.514;14.394;2022-12-05T02:43:09;93597.45;;;2.19;85.96
64211;BME280;50528;48.514;14.394;2022-12-05T02:43:58;93603.12;;;2.23;86.05
64211;BME280;50528;48.514;14.394;2022-12-05T02:45:15;93599.27;;;2.25;85.79
64211;BME280;50528;48.514;14.394;2022-12-05T02:45:59;93601.48;;;2.27;85.55
64211;BME280;50528;48.514;14.394;2022-12-05T02:46:37;93599.20;;;2.27;85.46
64211;BME280;50528;48.514;14.394;2022-12-05T02:47:14;93601.92;;;2.27;85.48
64211;BME280;50528;48.514;14.394;2022-12-05T02:47:53;93600.45;;;2.27;85.05
64211;BME280;50528;48.514;14.394;2022-12-05T02:48:31;93604.15;;;2.26;85.07
64211;BME280;50528;48.514;14.394;2022-12-05T02:50:42;93600.14;;;2.12;85.14
64211;BME280;50528;48.514;14.394;2022-12-05T02:51:20;93596.95;;;2.05;85.29
64211;BME280;50528;48.514;14.394;2022-12-05T02:51:56;93591.89;;;2.03;85.13
64211;BME280;50528;48.514;14.394;2022-12-05T02:52:32;93591.38;;;2.03;85.09
64211;BME280;50528;48.514;14.394;2022-12-05T02:53:10;93587.42;;;2.04;84.98
64211;BME280;50528;48.514;14.394;2022-12-05T02:53:48;93588.02;;;2.02;85.18
64211;BME280;50528;48.514;14.394;2022-12-05T02:54:25;93590.48;;;2.01;85.05
64211;BME280;50528;48.514;14.394;2022-12-05T02:55:00;93589.55;;;1.99;85.08
64211;BME280;50528;48.514;14.394;2022-12-05T02:55:35;93588.87;;;1.98;84.95
64211;BME280;50528;48.514;14.394;2022-12-05T02:56:13;93586.42;;;1.96;85.26
64211;BME280;50528;48.514;14.394;2022-12-05T02:56:59;93587.05;;;1.93;85.11
64211;BME280;50528;48.514;14.394;2022-12-05T02:57:36;93585.24;;;1.92;85.12
64211;BME280;50528;48.514;14.394;2022-12-05T02:58:15;93585.20;;;1.91;85.17
64211;BME280;50528;48.514;14.394;2022-12-05T02:58:52;93586.67;;;1.91;85.11
64211;BME280;50528;48.514;14.394;2022-12-05T02:59:25;93585.92;;;1.88;85.11
64211;BME280;50528;48.514;14.394;2022-12-05T03:00:13;93579.62;;;1.88;85.16
64211;BME280;50528;48.514;14.394;2022-12-05T03:00:49;93581.05;;;1.89;85.20
64211;BME280;50528;48.514;14.394;2022-12-05T03:01:25;93583.64;;;1.91;85.26
64211;BME280;50528;48.514;14.394;2022-12-05T03:02:00;93580.30;;;1.92;85.40
64211;BME280;50528;48.514;14.394;2022-12-05T03:02:39;93581.24;;;1.91;85.05
64211;BME280;50528;48.514;14.394;2022-12-05T03:03:18;93583.09;;;1.92;85.24
64211;BME280;50528;48.514;14.394;2022-12-05T03:03:56;93584.31;;;1.90;85.14
64211;BME280;50528;48.514;14.394;2022-12-05T03:04:31;93582.69;;;1.91;85.16
64211;BME280;50528;48.514;14.394;2022-12-05T03:05:36;93583.57;;;1.92;85.04
64211;BME280;50528;48.514;14.394;2022-12-05T03:06:18;93583.28;;;1.89;85.09
64211;BME280;50528;48.514;14.394;2022-12-05T03:07:31;93580.46;;;1.89;85.24
64211;BME280;50528;48.514;14.394;2022-12-05T03:08:07;93577.79;;;1.88;85.25
64211;BME280;50528;48.514;14.394;2022-12-05T03:08:55;93574.31;;;1.90;85.38
64211;BME280;50528;48.514;14.394;2022-12-05T03:09:38;93573.60;;;1.89;85.18
64211;BME280;50528;48.514;14.394;2022-12-05T03:10:18;93575.73;;;1.88;85.22
64211;BME280;50528;48.514;14.394;2022-12-05T03:10:54;93576.70;;;1.89;85.22
64211;BME280;50528;48.514;14.394;2022-12-05T03:11:33;93575.42;;;1.89;85.02
64211;BME280;50528;48.514;14.394;2022-12-05T03:12:23;93569.89;;;1.84;85.16
64211;BME280;50528;48.514;14.394;2022-12-05T03:13:04;93575.09;;;1.87;85.13
64211;BME280;50528;48.514;14.394;2022-12-05T03:13:47;93579.94;;;1.85;84.95
64211;BME280;50528;48.514;14.394;2022-12-05T03:14:22;93579.66;;;1.86;84.88
64211;BME280;50528;48.514;14.394;2022-12-05T03:15:44;93580.58;;;1.79;84.81
64211;BME280;50528;48.514;14.394;2022-12-05T03:16:22;93582.01;;;1.79;84.92
64211;BME280;50528;48.514;14.394;2022-12-05T03:17:02;93583.17;;;1.79;85.10
64211;BME280;50528;48.514;14.394;2022-12-05T03:18:09;93582.21;;;1.79;84.82
64211;BME280;50528;48.514;14.394;2022-12-05T03:18:56;93581.39;;;1.76;84.85
64211;BME280;50528;48.514;14.394;2022-12-05T03:20:32;93578.06;;;1.72;84.85
64211;BME280;50528;48.514;14.394;2022-12-05T03:21:24;93583.44;;;1.72;84.97
64211;BME280;50528;48.514;14.394;2022-12-05T03:22:14;93584.75;;;1.71;84.93
64211;BME280;50528;48.514;14.394;2022-12-05T03:23:04;93585.41;;;1.70;85.10
64211;BME280;50528;48.514;14.394;2022-12-05T03:23:44;93582.17;;;1.70;84.95
64211;BME280;50528;48.514;14.394;2022-12-05T03:24:19;93585.00;;;1.68;84.87
64211;BME280;50528;48.514;14.394;2022-12-05T03:24:55;93583.45;;;1.68;84.86
64211;BME280;50528;48.514;14.394;2022-12-05T03:25:34;93585.31;;;1.67;85.07
64211;BME280;50528;48.514;14.394;2022-12-05T03:27:46;93588.84;;;1.64;84.91
64211;BME280;50528;48.514;14.394;2022-12-05T03:30:17;93586.95;;;1.58;85.02
64211;BME280;50528;48.514;14.394;2022-12-05T03:30:55;93586.63;;;1.56;85.15
64211;BME280;50528;48.514;14.394;2022-12-05T03:32:01;93588.06;;;1.56;84.89
64211;BME280;50528;48.514;14.394;2022-12-05T03:33:44;93593.64;;;1.56;84.93
64211;BME280;50528;48.514;14.394;2022-12-05T03:34:38;93591.57;;;1.57;85.19
64211;BME280;50528;48.514;14.394;2022-12-05T03:35:28;93591.48;;;1.53;84.95
64211;BME280;50528;48.514;14.394;2022-12-05T03:36:48;93600.30;;;1.58;85.31
64211;BME280;50528;48.514;14.394;2022-12-05T03:37:46;93599.98;;;1.59;85.17
64211;BME280;50528;48.514;14.394;2022-12-05T03:39:12;93602.46;;;1.59;85.11
64211;BME280;50528;48.514;14.394;2022-12-05T03:39:58;93606.79;;;1.56;85.24
64211;BME280;50528;48.514;14.394;2022-12-05T03:40:59;93606.23;;;1.56;85.12
64211;BME280;50528;48.514;14.394;2022-12-05T03:42:32;93609.60;;;1.49;84.98
64211;BME280;50528;48.514;14.394;2022-12-05T03:43:46;93612.83;;;1.44;84.91
64211;BME280;50528;48.514;14.394;2022-12-05T03:44:36;93610.96;;;1.37;85.08
64211;BME280;50528;48.514;14.394;2022-12-05T03:45:21;93620.29;;;1.36;85.29
64211;BME280;50528;48.514;14.394;2022-12-05T03:46:11;93619.90;;;1.33;85.14
64211;BME280;50528;48.514;14.394;2022-12-05T03:46:52;93623.64;;;1.34;85.60
64211;BME280;50528;48.514;14.394;2022-12-05T03:48:22;93624.38;;;1.36;85.44
64211;BME280;50528;48.514;14.394;2022-12-05T03:49:10;93612.35;;;1.30;85.49
64211;BME280;50528;48.514;14.394;2022-12-05T03:49:51;93622.81;;;1.39;85.63
64211;BME280;50528;48.514;14.394;2022-12-05T03:50:29;93614.17;;;1.40;85.51
64211;BME280;50528;48.514;14.394;2022-12-05T03:51:07;93617.83;;;1.42;85.29
64211;BME280;50528;48.514;14.394;2022-12-05T03:51:57;93613.94;;;1.45;85.42
64211;BME280;50528;48.514;14.394;2022-12-05T03:53:14;93617.86;;;1.46;85.55